Time;durP1;ratioP1;P1;durP2;ratioP2;P2;SDS_P1;SDS_P2;PMS_P1;PMS_P2;Temp;Humidity;BMP_temperature;BMP_pressure;BME280_temperature;BME280_humidity;BME280_pressure;Samples;Min_cycle;Max_cycle;Signal;HPM_P1;HPM_P2
2021/03/19 00:02:08;;;;;;;4.20;2.03;;;;;;;24.51;45.23;102608.03;5093245;28;20071;-60
2021/03/19 00:04:33;;;;;;;4.97;1.80;;;;;;;24.52;45.88;102620.75;5074897;28;20047;-60
2021/03/19 00:06:59;;;;;;;4.65;2.10;;;;;;;24.60;45.43;102618.03;5093054;28;20030;-60
2021/03/19 00:09:24;;;;;;;5.55;2.17;;;;;;;24.61;45.64;102619.75;5092953;28;20016;-60
2021/03/19 00:11:49;;;;;;;4.07;1.77;;;;;;;24.61;46.22;102625.25;5093331;28;20114;-60
2021/03/19 00:14:15;;;;;;;6.00;2.03;;;;;;;24.44;45.98;102629.88;5093031;28;20024;-60
2021/03/19 00:16:40;;;;;;;4.95;2.28;;;;;;;24.48;45.79;102630.38;5093242;28;20024;-60
2021/03/19 00:19:07;;;;;;;6.88;2.33;;;;;;;24.43;45.35;102632.78;5092414;28;20264;-60
2021/03/19 00:21:32;;;;;;;4.35;2.35;;;;;;;24.37;45.62;102641.72;5093241;28;20467;-60
2021/03/19 00:23:58;;;;;;;4.55;1.90;;;;;;;24.35;45.21;102646.50;5092920;28;20042;-60
2021/03/19 00:26:23;;;;;;;4.93;2.00;;;;;;;24.37;45.43;102644.47;5092936;28;20028;-60
2021/03/19 00:28:49;;;;;;;3.75;1.83;;;;;;;24.37;44.56;102650.81;5093149;28;20024;-60
2021/03/19 00:31:15;;;;;;;3.70;1.65;;;;;;;24.35;45.29;102652.00;5074836;28;20394;-60
2021/03/19 00:33:40;;;;;;;4.97;2.08;;;;;;;24.43;45.28;102649.28;5092812;28;20024;-60
2021/03/19 00:36:06;;;;;;;4.22;1.85;;;;;;;24.41;45.42;102660.44;5092290;28;20465;-60
2021/03/19 00:38:31;;;;;;;3.22;1.70;;;;;;;24.37;44.74;102655.47;5092871;28;20027;-60
2021/03/19 00:40:56;;;;;;;4.22;1.90;;;;;;;24.33;45.25;102660.41;5092617;28;20549;-60
2021/03/19 00:43:22;;;;;;;5.30;2.45;;;;;;;24.31;44.79;102667.97;5074303;28;20050;-60
2021/03/19 00:45:48;;;;;;;5.97;2.55;;;;;;;24.29;44.35;102670.88;5092563;28;20111;-60
2021/03/19 00:48:13;;;;;;;6.45;2.30;;;;;;;24.25;44.89;102669.47;5092574;28;20099;-60
2021/03/19 00:50:40;;;;;;;4.30;1.77;;;;;;;24.19;44.06;102675.66;5092751;28;20012;-60
2021/03/19 00:53:06;;;;;;;4.70;1.55;;;;;;;24.19;44.03;102674.78;5092314;28;20054;-60
2021/03/19 00:55:32;;;;;;;3.78;2.10;;;;;;;24.23;43.73;102670.66;5092536;28;20047;-60
2021/03/19 00:57:58;;;;;;;4.65;1.92;;;;;;;24.23;44.15;102668.78;5092132;28;20398;-60
2021/03/19 01:00:26;;;;;;;5.68;1.77;;;;;;;24.32;43.63;102663.31;5092194;28;20035;-60
2021/03/19 01:02:51;;;;;;;6.28;3.33;;;;;;;24.41;43.92;102673.34;5091992;28;20107;-60
2021/03/19 01:05:19;;;;;;;6.25;2.40;;;;;;;24.49;44.28;102670.59;5092546;28;20066;-60
2021/03/19 01:07:45;;;;;;;4.85;1.90;;;;;;;24.38;45.00;102669.03;5092602;28;20409;-60
2021/03/19 01:10:14;;;;;;;5.00;2.17;;;;;;;24.34;44.70;102678.63;5092690;28;20034;-60
2021/03/19 01:12:39;;;;;;;5.10;2.33;;;;;;;24.29;44.48;102670.88;5092591;28;20379;-60
2021/03/19 01:15:06;;;;;;;3.53;1.73;;;;;;;24.27;44.66;102672.91;5092307;28;20039;-60
2021/03/19 01:17:32;;;;;;;3.47;1.83;;;;;;;24.22;44.39;102661.56;5092155;28;20067;-60
2021/03/19 01:19:58;;;;;;;7.90;2.10;;;;;;;24.19;44.92;102675.66;5091404;28;20463;-61
2021/03/19 01:22:23;;;;;;;5.28;2.33;;;;;;;24.11;44.36;102666.50;5092369;28;20051;-60
2021/03/19 01:24:48;;;;;;;4.10;1.50;;;;;;;24.09;44.52;102663.91;5092323;28;20034;-61
2021/03/19 01:27:14;;;;;;;5.53;2.20;;;;;;;24.09;44.08;102674.91;5092234;28;20028;-61
2021/03/19 01:29:39;;;;;;;5.13;1.92;;;;;;;24.08;44.54;102684.19;5092442;28;20451;-60
2021/03/19 01:32:04;;;;;;;4.63;2.00;;;;;;;24.10;43.92;102687.63;5091952;28;20024;-61
2021/03/19 01:34:30;;;;;;;5.72;2.05;;;;;;;24.10;44.52;102690.38;5092053;28;20170;-61
2021/03/19 01:36:55;;;;;;;5.25;2.08;;;;;;;24.15;44.43;102690.72;5092134;28;20044;-61
2021/03/19 01:39:20;;;;;;;4.68;1.77;;;;;;;24.10;44.10;102686.75;5074123;28;20170;-60
2021/03/19 01:41:54;;;;;;;6.93;2.10;;;;;;;24.09;44.03;102685.91;5092061;28;20043;-60
2021/03/19 01:44:58;;;;;;;5.93;1.80;;;;;;;24.04;44.17;102682.81;5092619;28;20387;-60
2021/03/19 01:48:00;;;;;;;6.03;2.28;;;;;;;24.04;44.42;102680.06;5029490;28;20509;-60
2021/03/19 01:51:02;;;;;;;5.05;2.30;;;;;;;24.03;44.40;102686.56;5029567;28;20030;-60
2021/03/19 01:54:05;;;;;;;4.07;2.17;;;;;;;24.01;44.84;102683.09;5012776;28;20024;-61
2021/03/19 01:57:08;;;;;;;6.28;2.33;;;;;;;24.05;44.89;102694.66;5029117;28;20044;-61
2021/03/19 02:00:10;;;;;;;5.28;2.13;;;;;;;24.08;45.68;102689.69;5013054;28;20132;-60
2021/03/19 02:03:13;;;;;;;5.43;2.63;;;;;;;24.13;45.97;102679.03;5028821;28;20523;-60
2021/03/19 02:06:16;;;;;;;5.50;2.10;;;;;;;24.07;46.20;102681.59;5024055;28;20091;-61
2021/03/19 02:09:18;;;;;;;4.88;1.98;;;;;;;24.03;45.65;102689.31;4994002;28;20026;-60
2021/03/19 02:12:21;;;;;;;4.55;1.90;;;;;;;23.98;45.93;102688.94;5013437;28;20052;-60
2021/03/19 02:15:24;;;;;;;5.57;2.25;;;;;;;23.99;45.99;102694.25;5013236;28;20121;-61
2021/03/19 02:18:26;;;;;;;3.40;1.60;;;;;;;23.95;45.73;102698.38;5012689;28;20061;-61
2021/03/19 02:21:29;;;;;;;3.90;2.13;;;;;;;23.98;46.04;102700.78;5013027;28;20037;-61
2021/03/19 02:24:32;;;;;;;3.08;1.55;;;;;;;23.99;46.11;102690.66;5027051;28;20047;-60
2021/03/19 02:27:34;;;;;;;3.72;1.88;;;;;;;24.04;45.44;102698.44;5074844;28;20027;-62
2021/03/19 02:30:37;;;;;;;5.63;2.28;;;;;;;24.08;45.93;102700.66;5074213;28;20031;-60
2021/03/19 02:33:02;;;;;;;5.85;2.33;;;;;;;23.97;45.95;102698.19;5085412;28;20395;-60
2021/03/19 02:35:28;;;;;;;4.60;1.70;;;;;;;23.95;45.11;102705.75;5095152;28;20459;-61
2021/03/19 02:37:53;;;;;;;4.97;1.88;;;;;;;23.94;45.70;102704.03;5095655;28;20169;-61
2021/03/19 02:40:22;;;;;;;6.15;2.17;;;;;;;23.95;45.40;102716.75;5094817;28;20405;-60
2021/03/19 02:42:49;;;;;;;5.30;1.85;;;;;;;23.94;45.05;102704.03;5094799;28;20383;-61
2021/03/19 02:45:18;;;;;;;3.88;2.05;;;;;;;23.92;44.71;102700.59;5095026;28;20039;-61
2021/03/19 02:47:44;;;;;;;4.72;2.00;;;;;;;23.90;44.98;102695.25;5094317;28;20028;-61
2021/03/19 02:50:10;;;;;;;4.05;2.15;;;;;;;23.88;45.55;102699.19;5094776;28;20091;-61
2021/03/19 02:52:38;;;;;;;4.65;2.08;;;;;;;23.95;45.55;102701.13;5094773;28;20028;-61
2021/03/19 02:55:07;;;;;;;5.88;2.15;;;;;;;24.01;44.89;102700.44;5094377;28;20058;-60
2021/03/19 02:57:32;;;;;;;4.25;1.88;;;;;;;24.01;45.24;102702.34;5091854;28;20028;-60
2021/03/19 02:59:57;;;;;;;6.45;1.95;;;;;;;23.95;45.29;102694.75;5093794;28;20031;-61
2021/03/19 03:02:22;;;;;;;6.00;2.22;;;;;;;23.91;45.65;102698.88;5094406;28;20051;-60
2021/03/19 03:04:48;;;;;;;6.00;2.03;;;;;;;23.86;45.35;102707.63;5094414;28;20016;-60
2021/03/19 03:07:25;;;;;;;4.03;1.65;;;;;;;23.85;44.88;102699.50;5093751;28;20028;-60
2021/03/19 03:09:51;;;;;;;3.90;1.80;;;;;;;23.85;44.88;102699.50;5094530;28;20058;-61
2021/03/19 03:12:17;;;;;;;5.95;2.40;;;;;;;23.83;44.87;102704.31;5094377;28;20433;-60
2021/03/19 03:14:43;;;;;;;5.43;2.65;;;;;;;23.82;45.03;102706.19;5076371;28;20054;-60
2021/03/19 03:17:08;;;;;;;4.65;2.30;;;;;;;23.89;45.27;102711.91;5093996;28;20154;-60
2021/03/19 03:19:34;;;;;;;5.53;2.05;;;;;;;23.86;45.17;102712.25;5093782;28;20234;-60
2021/03/19 03:21:59;;;;;;;5.25;1.92;;;;;;;23.91;44.80;102718.09;5094074;28;20016;-61
2021/03/19 03:24:26;;;;;;;7.85;2.53;;;;;;;23.93;45.49;102722.41;5076105;28;20048;-60
2021/03/19 03:26:52;;;;;;;4.10;1.83;;;;;;;23.83;45.87;102723.53;5094094;28;20028;-61
2021/03/19 03:29:20;;;;;;;4.22;2.00;;;;;;;23.85;44.73;102726.97;5094125;28;20459;-60
2021/03/19 03:31:45;;;;;;;5.05;1.95;;;;;;;23.84;44.77;102728.00;5094222;28;20026;-61
2021/03/19 03:34:11;;;;;;;4.45;1.70;;;;;;;23.80;44.59;102727.47;5093724;28;20102;-60
2021/03/19 03:36:39;;;;;;;5.85;2.05;;;;;;;23.75;44.38;102729.00;5093271;28;20166;-60
2021/03/19 03:39:09;;;;;;;4.28;1.60;;;;;;;23.79;44.69;102730.38;5093776;28;20038;-60
2021/03/19 03:41:36;;;;;;;3.63;2.15;;;;;;;23.79;44.31;102735.88;5093368;28;20032;-60
2021/03/19 03:44:03;;;;;;;5.68;2.00;;;;;;;23.79;44.39;102733.13;5093759;28;20024;-60
2021/03/19 03:46:28;;;;;;;4.07;2.25;;;;;;;23.80;43.94;102719.22;5093707;28;20020;-60
2021/03/19 03:48:58;;;;;;;5.63;2.20;;;;;;;23.84;44.33;102730.75;5075566;28;20031;-61
2021/03/19 03:51:25;;;;;;;4.47;1.98;;;;;;;23.85;44.91;102737.97;5093892;28;20075;-60
2021/03/19 03:53:51;;;;;;;4.93;2.08;;;;;;;23.82;45.57;102651.25;5093550;28;20048;-61
2021/03/19 03:56:16;;;;;;;5.65;2.10;;;;;;;23.80;46.71;102652.44;5075184;28;20154;-61
2021/03/19 03:58:43;;;;;;;4.25;1.85;;;;;;;23.80;47.96;102646.97;5093719;28;20107;-60
2021/03/19 04:01:09;;;;;;;5.65;2.28;;;;;;;23.86;48.09;102772.69;5093239;28;20024;-60
2021/03/19 04:03:34;;;;;;;4.82;1.88;;;;;;;23.79;47.66;102739.47;5093424;28;20039;-60
2021/03/19 04:06:01;;;;;;;8.10;2.58;;;;;;;23.77;47.46;102743.41;5074953;28;20536;-61
2021/03/19 04:08:28;;;;;;;5.30;2.60;;;;;;;23.79;47.21;102755.09;5093337;28;20060;-60
2021/03/19 04:10:57;;;;;;;6.10;2.47;;;;;;;23.82;47.01;102757.50;5093362;28;20465;-60
2021/03/19 04:13:24;;;;;;;6.78;2.25;;;;;;;23.81;46.85;102747.56;5093342;28;20056;-60
2021/03/19 04:15:51;;;;;;;6.85;2.30;;;;;;;23.84;47.21;102747.22;5074568;28;20016;-60
2021/03/19 04:18:17;;;;;;;4.65;2.15;;;;;;;23.98;47.17;102754.88;5092504;28;20023;-61
2021/03/19 04:20:44;;;;;;;4.78;1.75;;;;;;;24.05;47.26;102766.09;5093282;28;20028;-60
2021/03/19 04:23:10;;;;;;;5.40;2.15;;;;;;;24.05;47.21;102753.22;5074694;28;20020;-60
2021/03/19 04:25:35;;;;;;;6.70;2.13;;;;;;;23.98;47.61;102766.72;5093148;28;20489;-60
2021/03/19 04:28:06;;;;;;;4.57;2.33;;;;;;;23.96;47.48;102767.91;5092914;28;20035;-60
2021/03/19 04:30:40;;;;;;;4.68;1.95;;;;;;;23.96;47.81;102767.91;5074759;28;20110;-60
2021/03/19 04:33:10;;;;;;;4.95;2.05;;;;;;;23.92;47.50;102770.13;5092038;28;20028;-60
2021/03/19 04:35:35;;;;;;;4.53;1.70;;;;;;;23.88;46.75;102781.63;5092899;28;20036;-60
2021/03/19 04:38:06;;;;;;;5.25;1.88;;;;;;;23.84;46.83;102785.69;5093036;28;20058;-60
2021/03/19 04:40:32;;;;;;;4.85;2.42;;;;;;;23.78;47.02;102789.09;5074670;28;20081;-60
2021/03/19 04:42:59;;;;;;;4.72;2.10;;;;;;;23.80;46.62;102796.13;5074612;28;20028;-60
2021/03/19 04:45:25;;;;;;;3.55;2.17;;;;;;;23.81;46.27;102802.50;5092893;28;20028;-60
2021/03/19 04:47:53;;;;;;;5.05;1.60;;;;;;;23.77;46.35;102790.09;5093090;28;20464;-60
2021/03/19 04:50:20;;;;;;;6.65;2.95;;;;;;;23.84;46.87;102799.41;5092628;28;20031;-61
2021/03/19 04:52:45;;;;;;;5.43;2.10;;;;;;;23.83;46.74;102789.44;5092080;28;20066;-60
2021/03/19 04:55:11;;;;;;;4.63;1.80;;;;;;;23.88;46.93;102778.88;5091051;28;20048;-61
2021/03/19 04:57:37;;;;;;;5.25;2.22;;;;;;;23.85;48.03;102777.31;5092473;28;20042;-60
2021/03/19 05:00:05;;;;;;;5.15;2.08;;;;;;;23.88;47.81;102784.34;5092340;28;20372;-60
2021/03/19 05:02:45;;;;;;;4.68;1.83;;;;;;;24.78;45.43;102781.03;5092152;28;20463;-60
2021/03/19 05:05:25;;;;;;;4.97;2.17;;;;;;;25.19;44.26;102790.25;5092033;28;20031;-60
2021/03/19 05:07:51;;;;;;;7.65;2.40;;;;;;;25.36;43.51;102773.72;5092562;28;20099;-60
2021/03/19 05:10:19;;;;;;;6.05;2.35;;;;;;;25.54;43.50;102798.38;5092318;28;20170;-60
2021/03/19 05:12:45;;;;;;;4.95;2.33;;;;;;;25.76;43.27;102793.03;5092583;28;20030;-61
2021/03/19 05:15:11;;;;;;;7.10;2.40;;;;;;;25.78;43.58;102792.84;5092405;28;20028;-60
2021/03/19 05:17:36;;;;;;;5.88;2.33;;;;;;;25.89;43.64;102795.25;5092125;28;20463;-60
2021/03/19 05:20:05;;;;;;;6.68;2.67;;;;;;;25.85;43.60;102796.63;5074108;28;20039;-60
2021/03/19 05:22:30;;;;;;;6.72;2.17;;;;;;;25.88;43.63;102796.28;5092048;28;20063;-60
2021/03/19 05:24:56;;;;;;;5.35;2.17;;;;;;;25.89;44.32;102789.75;5092325;28;20114;-60
2021/03/19 05:27:21;;;;;;;6.25;2.53;;;;;;;25.86;44.42;102792.81;5091711;28;20052;-60
2021/03/19 05:29:46;;;;;;;6.35;2.58;;;;;;;25.90;43.47;102791.47;5092407;28;20031;-60
2021/03/19 05:32:12;;;;;;;6.95;2.78;;;;;;;25.91;43.00;102795.94;5091634;28;20111;-60
2021/03/19 05:34:38;;;;;;;5.97;2.20;;;;;;;25.97;43.22;102795.22;5092419;28;20114;-60
2021/03/19 05:37:04;;;;;;;6.63;2.28;;;;;;;25.98;42.99;102796.94;5091579;28;20506;-61
2021/03/19 05:39:30;;;;;;;6.85;2.65;;;;;;;26.01;43.45;102795.72;5092662;28;20526;-61
2021/03/19 05:41:55;;;;;;;7.03;2.10;;;;;;;26.13;42.78;102805.34;5092202;28;20074;-61
2021/03/19 05:44:23;;;;;;;4.80;2.08;;;;;;;26.24;42.51;102806.88;5093800;28;20032;-60
2021/03/19 05:46:52;;;;;;;4.22;2.05;;;;;;;26.29;43.06;102809.97;5095879;28;20058;-60
2021/03/19 05:49:26;;;;;;;7.07;2.55;;;;;;;26.31;42.60;102810.63;5096052;28;20166;-60
2021/03/19 05:51:57;;;;;;;5.75;1.90;;;;;;;26.31;44.28;102813.38;5096116;28;20031;-60
2021/03/19 05:54:36;;;;;;;5.07;2.15;;;;;;;26.42;43.94;102820.47;5095756;28;20491;-60
2021/03/19 05:57:04;;;;;;;6.65;2.25;;;;;;;26.36;44.23;102816.50;5095739;28;20379;-60
2021/03/19 05:59:34;;;;;;;5.15;2.22;;;;;;;26.30;45.09;102817.19;5095911;28;20270;-60
2021/03/19 06:02:00;;;;;;;5.53;2.47;;;;;;;26.30;45.43;102819.94;5095239;28;20107;-60
2021/03/19 06:04:29;;;;;;;5.28;2.47;;;;;;;26.32;45.22;102804.94;5095879;28;20389;-60
2021/03/19 06:07:03;;;;;;;5.47;2.22;;;;;;;26.30;45.05;102817.19;5095673;28;20024;-61
2021/03/19 06:09:42;;;;;;;5.55;2.10;;;;;;;26.31;45.34;102813.38;5077859;28;20321;-60
2021/03/19 06:12:11;;;;;;;6.00;2.38;;;;;;;26.32;45.50;102809.59;5095539;28;20032;-60
2021/03/19 06:14:50;;;;;;;6.30;2.42;;;;;;;26.32;45.00;102810.47;5095647;28;20028;-60
2021/03/19 06:17:43;;;;;;;6.05;2.55;;;;;;;26.35;46.14;102817.53;5095367;28;20055;-60
2021/03/19 06:20:14;;;;;;;6.10;2.28;;;;;;;26.42;45.34;102815.81;5095367;28;20107;-60
2021/03/19 06:22:46;;;;;;;5.80;2.10;;;;;;;26.51;45.31;102809.22;5092183;28;20032;-60
2021/03/19 06:25:19;;;;;;;5.57;2.28;;;;;;;26.51;46.83;102803.69;5095343;28;20094;-60
2021/03/19 06:27:49;;;;;;;5.18;2.08;;;;;;;26.60;45.78;102807.28;5095463;28;20482;-60
2021/03/19 06:30:28;;;;;;;6.07;2.20;;;;;;;26.60;46.18;102801.78;5095077;28;20036;-61
2021/03/19 06:33:11;;;;;;;4.90;2.55;;;;;;;26.63;46.63;102813.28;5094800;28;20588;-60
2021/03/19 06:35:38;;;;;;;5.60;2.45;;;;;;;26.68;46.51;102816.38;5094915;28;20028;-60
2021/03/19 06:38:32;;;;;;;6.65;2.35;;;;;;;26.58;45.92;102815.75;5094467;28;20036;-60
2021/03/19 06:41:18;;;;;;;7.18;2.97;;;;;;;26.55;46.65;102818.00;5076628;28;20028;-60
2021/03/19 06:43:44;;;;;;;6.53;2.63;;;;;;;26.55;46.59;102821.63;5095164;28;20028;-60
2021/03/19 06:46:13;;;;;;;5.05;2.53;;;;;;;26.52;46.19;102816.44;5094799;28;20070;-60
2021/03/19 06:48:47;;;;;;;6.43;2.75;;;;;;;26.47;45.47;102812.50;5095087;28;20020;-60
2021/03/19 06:51:25;;;;;;;6.00;2.47;;;;;;;26.47;46.14;102827.16;5094865;28;20023;-60
2021/03/19 06:53:58;;;;;;;5.43;2.70;;;;;;;26.49;46.18;102827.84;5094623;28;20081;-60
2021/03/19 06:56:24;;;;;;;5.53;2.47;;;;;;;26.55;46.08;102821.63;5092653;28;20024;-60
2021/03/19 06:58:50;;;;;;;7.80;2.95;;;;;;;26.57;46.58;102818.69;5094732;28;20062;-61
2021/03/19 07:01:32;;;;;;;5.75;2.45;;;;;;;26.57;46.34;102808.50;5093886;28;20042;-60
2021/03/19 07:04:04;;;;;;;7.43;2.80;;;;;;;26.53;45.96;102828.34;5094182;28;20073;-60
2021/03/19 07:06:53;;;;;;;5.90;2.80;;;;;;;26.58;46.61;102820.41;5093564;28;20059;-60
2021/03/19 07:09:56;;;;;;;6.25;2.40;;;;;;;26.47;46.61;102813.38;5078120;28;20070;-60
2021/03/19 07:12:30;;;;;;;5.78;2.58;;;;;;;26.47;46.78;102821.66;5019895;28;20041;-60
2021/03/19 07:15:18;;;;;;;;;;;;;;;26.44;47.23;102824.75;5030385;28;20042;-60
2021/03/19 07:18:03;;;;;;;6.90;2.83;;;;;;;26.47;46.86;102827.16;5008174;28;19913;-60
2021/03/19 07:20:47;;;;;;;5.55;2.33;;;;;;;26.53;46.28;102823.69;5031106;28;20033;-60
2021/03/19 07:23:25;;;;;;;6.32;2.38;;;;;;;26.57;46.23;102827.81;5014532;28;20044;-60
2021/03/19 07:26:11;;;;;;;7.20;2.97;;;;;;;26.56;46.72;102839.03;5017273;28;20063;-60
2021/03/19 07:28:58;;;;;;;7.78;2.60;;;;;;;26.65;46.20;102830.53;5023593;28;20029;-63
2021/03/19 07:31:42;;;;;;;5.57;2.30;;;;;;;26.80;46.48;102840.81;5042452;28;20029;-64
2021/03/19 07:34:26;;;;;;;7.63;2.85;;;;;;;26.91;46.43;102844.03;5033864;28;20297;-67
2021/03/19 07:37:10;;;;;;;7.10;2.63;;;;;;;26.95;46.29;102844.53;5030246;28;20029;-67
2021/03/19 07:39:51;;;;;;;5.65;2.00;;;;;;;26.94;47.25;102840.91;5030778;28;20543;-67
2021/03/19 07:42:21;;;;;;;6.65;2.53;;;;;;;27.02;46.49;102840.03;5038002;28;20069;-67
2021/03/19 07:45:34;;;;;;;6.80;2.55;;;;;;;26.88;46.63;102838.03;5030369;28;20696;-67
2021/03/19 07:48:08;;;;;;;4.90;2.35;;;;;;;26.84;46.47;102825.59;4986864;28;20049;-66
2021/03/19 07:51:04;;;;;;;6.30;2.50;;;;;;;26.74;46.74;102842.41;5027874;28;20130;-66
2021/03/19 07:53:54;;;;;;;7.28;2.42;;;;;;;26.74;46.61;102847.06;5005050;28;20034;-65
2021/03/19 07:56:34;;;;;;;6.78;2.60;;;;;;;26.72;46.50;102849.16;5008543;28;20116;-66
2021/03/19 07:59:15;;;;;;;8.40;2.63;;;;;;;26.79;46.23;102844.63;5007810;28;20452;-68
2021/03/19 08:01:50;;;;;;;4.28;2.25;;;;;;;26.74;46.09;102831.38;5002538;28;20037;-65
2021/03/19 08:04:15;;;;;;;7.28;2.63;;;;;;;26.81;45.59;102846.16;4994091;28;20050;-64
2021/03/19 08:06:48;;;;;;;6.07;2.50;;;;;;;26.89;45.60;102846.13;5022767;28;20029;-63
2021/03/19 08:09:47;;;;;;;5.40;2.25;;;;;;;26.98;46.45;102855.19;4987849;28;20278;-64
2021/03/19 08:12:29;;;;;;;7.05;2.78;;;;;;;27.11;46.81;102850.00;4996199;28;20052;-65
2021/03/19 08:15:04;;;;;;;5.55;2.45;;;;;;;27.02;47.38;102856.59;5008586;28;20044;-65
2021/03/19 08:17:51;;;;;;;6.40;2.88;;;;;;;27.04;48.00;102854.50;5011673;28;20120;-67
2021/03/19 08:20:28;;;;;;;5.30;2.58;;;;;;;27.02;46.72;102862.09;5008014;28;20049;-68
2021/03/19 08:23:03;;;;;;;6.68;3.10;;;;;;;26.92;46.96;102855.94;5008609;28;20037;-66
2021/03/19 08:25:34;;;;;;;7.30;2.70;;;;;;;26.97;47.32;102859.00;5078022;28;20043;-68
2021/03/19 08:28:23;;;;;;;7.25;2.67;;;;;;;26.88;47.47;102865.63;5090070;28;20051;-67
2021/03/19 08:31:19;;;;;;;5.60;2.25;;;;;;;26.90;47.52;102852.50;5097609;28;20058;-69
2021/03/19 08:34:09;;;;;;;6.68;2.72;;;;;;;26.87;47.52;102863.88;5093413;28;20035;-66
2021/03/19 08:36:48;;;;;;;7.10;2.92;;;;;;;26.87;48.17;102852.84;5091241;28;20055;-65
2021/03/19 08:39:45;;;;;;;6.07;2.40;;;;;;;26.88;47.84;102863.72;5090848;28;20020;-68
2021/03/19 08:42:13;;;;;;;5.63;2.22;;;;;;;26.98;48.04;102861.59;5093568;28;20020;-65
2021/03/19 08:44:39;;;;;;;7.68;2.30;;;;;;;27.13;47.54;102856.19;5090319;28;20050;-64
2021/03/19 08:47:35;;;;;;;7.25;3.00;;;;;;;27.14;47.67;102849.63;5090446;28;20035;-64
2021/03/19 08:50:22;;;;;;;5.88;3.20;;;;;;;27.21;47.75;102867.19;5026532;28;20124;-64
2021/03/19 08:53:06;;;;;;;6.10;3.05;;;;;;;27.23;48.51;102850.44;5025224;28;20116;-65
2021/03/19 08:55:34;;;;;;;5.83;2.60;;;;;;;27.16;47.57;102857.72;5029062;28;20362;-65
2021/03/19 08:58:27;;;;;;;6.63;2.70;;;;;;;27.01;48.15;102865.91;5027476;28;20128;-63
2021/03/19 09:01:33;;;;;;;6.60;2.47;;;;;;;27.08;47.72;102861.41;5027234;28;20034;-63
2021/03/19 09:03:58;;;;;;;7.47;2.90;;;;;;;27.01;47.82;102860.38;5023766;28;20025;-63
2021/03/19 09:06:27;;;;;;;7.60;3.00;;;;;;;27.01;47.44;102848.50;5026601;28;20075;-64
2021/03/19 09:09:00;;;;;;;6.72;3.00;;;;;;;26.95;47.44;102859.19;5010541;28;20599;-63
2021/03/19 09:11:38;;;;;;;5.45;2.58;;;;;;;26.30;48.29;102858.56;5029580;28;20041;-64
2021/03/19 09:14:03;;;;;;;6.47;2.70;;;;;;;26.19;48.45;102847.88;5025694;28;20332;-64
2021/03/19 09:16:42;;;;;;;6.00;2.80;;;;;;;26.11;48.97;102861.69;5028129;28;20424;-64
2021/03/19 09:19:46;;;;;;;4.35;2.30;;;;;;;26.04;48.88;102859.66;5019332;28;20279;-64
2021/03/19 09:22:21;;;;;;;5.75;2.63;;;;;;;25.97;49.10;102853.09;4939418;29;20231;-63
2021/03/19 09:25:11;;;;;;;6.20;2.60;;;;;;;25.89;49.55;102868.78;4935120;29;20138;-63
2021/03/19 09:27:46;;;;;;;6.30;2.40;;;;;;;25.74;48.63;102843.84;4985807;28;20416;-68
2021/03/19 09:30:23;;;;;;;5.90;2.65;;;;;;;25.82;47.64;102854.84;4997957;28;20587;-64
2021/03/19 09:32:56;;;;;;;9.82;2.33;;;;;;;25.79;47.33;102836.75;4995985;28;20436;-62
2021/03/19 09:35:44;;;;;;;6.18;1.75;;;;;;;25.45;47.91;102838.78;5006453;28;20531;-59
2021/03/19 09:38:22;;;;;;;4.80;2.00;;;;;;;25.47;48.61;102856.84;4996632;28;20045;-64
2021/03/19 09:40:54;;;;;;;2.28;1.23;;;;;;;25.45;49.64;102856.19;4992219;28;20084;-62
2021/03/19 09:43:38;;;;;;;4.28;1.08;;;;;;;25.38;48.50;102838.63;4992100;28;20026;-60
2021/03/19 09:46:15;;;;;;;4.78;1.30;;;;;;;25.53;49.63;102857.19;4965293;28;20035;-59
2021/03/19 09:49:05;;;;;;;4.90;1.42;;;;;;;25.36;51.04;102840.69;4985753;28;20031;-60
2021/03/19 09:51:39;;;;;;;2.97;1.00;;;;;;;25.25;49.74;102854.78;5000818;28;20439;-60
2021/03/19 09:54:17;;;;;;;3.75;1.40;;;;;;;25.18;49.00;102849.06;4987093;28;20034;-59
2021/03/19 09:56:43;;;;;;;2.35;0.93;;;;;;;25.26;49.28;102834.47;4976333;28;20324;-60
2021/03/19 09:59:19;;;;;;;4.55;1.15;;;;;;;25.20;48.82;102851.69;5034479;28;20122;-60
2021/03/19 10:01:45;;;;;;;5.68;1.20;;;;;;;25.24;49.06;102853.06;5097273;28;20023;-61
2021/03/19 10:04:26;;;;;;;4.22;1.42;;;;;;;25.29;48.65;102849.78;5094485;28;20081;-62
2021/03/19 10:06:51;;;;;;;3.50;1.50;;;;;;;25.55;48.89;102855.16;5088099;28;20024;-60
2021/03/19 10:09:27;;;;;;;2.35;1.20;;;;;;;25.67;49.21;102854.63;5097676;28;20035;-64
2021/03/19 10:12:01;;;;;;;5.47;1.67;;;;;;;26.04;47.22;102862.41;5096075;28;20035;-60
2021/03/19 10:14:37;;;;;;;3.03;1.58;;;;;;;25.97;47.58;102866.00;5098395;28;20030;-61
2021/03/19 10:17:12;;;;;;;4.43;1.42;;;;;;;25.88;47.54;102865.19;5093724;28;20483;-59
2021/03/19 10:19:40;;;;;;;5.38;2.20;;;;;;;25.82;46.88;102857.59;5095324;28;20040;-60
2021/03/19 10:22:07;;;;;;;4.35;1.90;;;;;;;25.86;46.94;102858.94;5076435;28;20023;-59
2021/03/19 10:24:34;;;;;;;4.32;2.05;;;;;;;26.00;49.65;102871.19;5093309;28;20036;-61
2021/03/19 10:27:13;;;;;;;5.50;2.10;;;;;;;25.95;48.74;102855.16;5093162;28;20028;-62
2021/03/19 10:29:44;;;;;;;4.25;1.70;;;;;;;26.05;48.93;102857.75;5098713;28;20059;-61
2021/03/19 10:32:16;;;;;;;4.63;1.88;;;;;;;26.00;49.16;102866.53;5094334;28;20055;-60
2021/03/19 10:35:08;;;;;;;4.60;2.20;;;;;;;25.95;50.28;102866.19;5102665;28;20028;-60
2021/03/19 10:37:44;;;;;;;3.15;1.83;;;;;;;25.92;48.44;102868.44;5083920;28;20051;-62
2021/03/19 10:40:24;;;;;;;3.42;2.08;;;;;;;25.86;49.97;102866.34;5096513;28;20110;-64
2021/03/19 10:43:10;;;;;;;4.03;1.40;;;;;;;25.83;51.00;102864.81;5087785;28;20020;-60
2021/03/19 10:45:39;;;;;;;6.18;1.50;;;;;;;25.98;50.39;102832.78;5091529;28;20243;-65
2021/03/19 10:48:25;;;;;;;3.40;1.83;;;;;;;25.94;49.79;102839.66;5088698;28;20114;-61
2021/03/19 10:51:03;;;;;;;6.50;1.85;;;;;;;25.93;51.63;102831.59;5097787;28;20024;-62
2021/03/19 10:54:22;;;;;;;5.25;1.95;;;;;;;25.91;48.55;102840.03;5093076;28;20062;-63
2021/03/19 10:56:54;;;;;;;6.45;1.42;;;;;;;25.93;48.13;102843.47;5034995;28;20049;-60
2021/03/19 10:59:25;;;;;;;5.55;1.80;;;;;;;26.05;47.12;102836.56;5031028;28;20049;-60
2021/03/19 11:01:51;;;;;;;5.15;2.00;;;;;;;26.23;47.74;102838.25;5029756;28;20033;-60
2021/03/19 11:04:37;;;;;;;4.10;2.05;;;;;;;26.21;47.54;102845.84;5030366;28;20117;-60
2021/03/19 11:07:21;;;;;;;4.50;2.50;;;;;;;26.27;47.86;102857.00;5024406;28;20428;-60
2021/03/19 11:10:14;;;;;;;4.68;1.75;;;;;;;26.36;49.62;102849.59;5029749;28;20040;-60
2021/03/19 11:12:44;;;;;;;4.55;2.08;;;;;;;26.34;49.18;102857.16;5029300;28;20041;-61
2021/03/19 11:15:16;;;;;;;4.82;1.90;;;;;;;26.37;49.27;102845.78;5028344;28;20068;-61
2021/03/19 11:17:42;;;;;;;6.05;2.25;;;;;;;26.38;49.11;102848.41;5012492;28;20486;-60
2021/03/19 11:20:23;;;;;;;5.20;2.15;;;;;;;26.38;49.19;102836.50;5028893;28;20037;-61
2021/03/19 11:22:49;;;;;;;5.30;2.28;;;;;;;26.31;48.73;102846.47;5030275;28;20040;-61
2021/03/19 11:25:33;;;;;;;5.13;2.10;;;;;;;26.29;49.52;102826.50;5031565;28;20570;-61
2021/03/19 11:27:58;;;;;;;5.85;2.13;;;;;;;26.33;48.39;102838.88;5031032;28;20037;-61
2021/03/19 11:30:23;;;;;;;5.45;2.22;;;;;;;26.41;48.37;102840.81;5031306;28;20030;-60
2021/03/19 11:33:10;;;;;;;5.47;2.03;;;;;;;26.42;48.15;102848.91;5082325;28;20044;-60
2021/03/19 11:35:37;;;;;;;6.40;2.28;;;;;;;26.42;48.28;102840.63;5093813;28;20020;-60
2021/03/19 11:38:13;;;;;;;5.43;2.20;;;;;;;26.43;48.60;102836.84;5093780;28;20221;-62
2021/03/19 11:40:43;;;;;;;5.53;2.53;;;;;;;26.51;49.28;102853.34;5093879;28;20028;-60
2021/03/19 11:43:10;;;;;;;3.58;1.80;;;;;;;26.54;48.69;102838.31;5075562;28;20068;-60
2021/03/19 11:45:42;;;;;;;7.30;2.78;;;;;;;26.57;49.50;102835.25;5093883;28;20058;-60
2021/03/19 11:48:19;;;;;;;4.43;1.90;;;;;;;26.60;49.02;102863.31;5075485;28;20024;-61
2021/03/19 11:50:51;;;;;;;6.03;2.53;;;;;;;26.66;49.10;102854.31;5093865;28;20024;-61
2021/03/19 11:53:27;;;;;;;4.97;1.92;;;;;;;26.74;49.41;102847.06;5093385;28;20036;-61
2021/03/19 11:55:57;;;;;;;6.00;2.15;;;;;;;26.63;49.07;102856.56;5093544;28;20382;-60
2021/03/19 11:58:26;;;;;;;5.47;1.90;;;;;;;26.55;nan;102849.22;5093092;28;20027;-61
2021/03/19 12:00:52;;;;;;;7.70;2.25;;;;;;;26.55;48.60;102849.22;5093308;28;20027;-61